sensor_id;sensor_type;location;lat;lon;timestamp;P1;durP1;ratioP1;P2;durP2;ratioP2
2680;SDS011;1350;42.134;24.708;2022-11-20T00:02:10;53.92;;;38.50;;
2680;SDS011;1350;42.134;24.708;2022-11-20T00:04:37;60.47;;;41.58;;
2680;SDS011;1350;42.134;24.708;2022-11-20T00:07:04;59.25;;;37.78;;
2680;SDS011;1350;42.134;24.708;2022-11-20T00:09:31;54.72;;;38.38;;
2680;SDS011;1350;42.134;24.708;2022-11-20T00:11:57;57.90;;;44.95;;
2680;SDS011;1350;42.134;24.708;2022-11-20T00:14:24;79.15;;;59.17;;
2680;SDS011;1350;42.134;24.708;2022-11-20T00:16:51;57.63;;;43.22;;
2680;SDS011;1350;42.134;24.708;2022-11-20T00:19:19;53.38;;;39.33;;
2680;SDS011;1350;42.134;24.708;2022-11-20T00:21:46;59.13;;;39.03;;
2680;SDS011;1350;42.134;24.708;2022-11-20T00:24:12;50.60;;;37.50;;
2680;SDS011;1350;42.134;24.708;2022-11-20T00:26:40;50.17;;;39.15;;
2680;SDS011;1350;42.134;24.708;2022-11-20T00:29:08;54.95;;;39.00;;
2680;SDS011;1350;42.134;24.708;2022-11-20T00:31:35;55.55;;;39.70;;
2680;SDS011;1350;42.134;24.708;2022-11-20T00:34:03;57.03;;;40.55;;
2680;SDS011;1350;42.134;24.708;2022-11-20T00:36:31;53.38;;;39.20;;
2680;SDS011;1350;42.134;24.708;2022-11-20T00:38:59;54.50;;;39.80;;
2680;SDS011;1350;42.134;24.708;2022-11-20T00:41:26;50.42;;;37.53;;
2680;SDS011;1350;42.134;24.708;2022-11-20T00:43:54;52.60;;;38.85;;
2680;SDS011;1350;42.134;24.708;2022-11-20T00:46:22;60.80;;;40.25;;
2680;SDS011;1350;42.134;24.708;2022-11-20T00:48:50;61.83;;;38.72;;
2680;SDS011;1350;42.134;24.708;2022-11-20T00:51:18;50.80;;;38.35;;
2680;SDS011;1350;42.134;24.708;2022-11-20T00:53:48;56.08;;;37.08;;
2680;SDS011;1350;42.134;24.708;2022-11-20T00:56:16;59.90;;;41.78;;
2680;SDS011;1350;42.134;24.708;2022-11-20T00:58:44;52.08;;;38.90;;
2680;SDS011;1350;42.134;24.708;2022-11-20T01:01:13;58.80;;;40.28;;
2680;SDS011;1350;42.134;24.708;2022-11-20T01:03:43;51.10;;;40.22;;
2680;SDS011;1350;42.134;24.708;2022-11-20T01:06:12;97.00;;;70.82;;
2680;SDS011;1350;42.134;24.708;2022-11-20T01:08:40;55.33;;;44.28;;
2680;SDS011;1350;42.134;24.708;2022-11-20T01:11:10;53.63;;;41.47;;
2680;SDS011;1350;42.134;24.708;2022-11-20T01:13:38;50.38;;;37.00;;
2680;SDS011;1350;42.134;24.708;2022-11-20T01:16:07;49.28;;;36.58;;
2680;SDS011;1350;42.134;24.708;2022-11-20T01:18:35;51.80;;;37.50;;
2680;SDS011;1350;42.134;24.708;2022-11-20T01:21:03;49.35;;;38.83;;
2680;SDS011;1350;42.134;24.708;2022-11-20T01:23:32;56.05;;;41.45;;
2680;SDS011;1350;42.134;24.708;2022-11-20T01:26:10;45.80;;;36.20;;
2680;SDS011;1350;42.134;24.708;2022-11-20T01:28:39;42.33;;;33.53;;
2680;SDS011;1350;42.134;24.708;2022-11-20T01:31:12;43.22;;;33.75;;
2680;SDS011;1350;42.134;24.708;2022-11-20T01:33:41;48.97;;;37.47;;
2680;SDS011;1350;42.134;24.708;2022-11-20T01:36:09;49.65;;;34.97;;
2680;SDS011;1350;42.134;24.708;2022-11-20T01:38:36;50.58;;;34.47;;
2680;SDS011;1350;42.134;24.708;2022-11-20T01:41:04;38.50;;;32.03;;
2680;SDS011;1350;42.134;24.708;2022-11-20T01:43:33;46.58;;;32.42;;
2680;SDS011;1350;42.134;24.708;2022-11-20T01:46:04;53.08;;;33.67;;
2680;SDS011;1350;42.134;24.708;2022-11-20T01:48:38;50.70;;;37.63;;
2680;SDS011;1350;42.134;24.708;2022-11-20T01:51:10;56.97;;;37.40;;
2680;SDS011;1350;42.134;24.708;2022-11-20T01:53:42;48.53;;;34.38;;
2680;SDS011;1350;42.134;24.708;2022-11-20T01:56:09;44.95;;;34.38;;
2680;SDS011;1350;42.134;24.708;2022-11-20T01:58:42;51.00;;;34.80;;
2680;SDS011;1350;42.134;24.708;2022-11-20T02:01:12;46.58;;;34.63;;
2680;SDS011;1350;42.134;24.708;2022-11-20T02:03:40;45.63;;;32.30;;
2680;SDS011;1350;42.134;24.708;2022-11-20T02:06:09;43.03;;;31.42;;
2680;SDS011;1350;42.134;24.708;2022-11-20T02:08:41;49.83;;;34.22;;
2680;SDS011;1350;42.134;24.708;2022-11-20T02:11:07;44.97;;;34.15;;
2680;SDS011;1350;42.134;24.708;2022-11-20T02:13:34;47.00;;;34.40;;
2680;SDS011;1350;42.134;24.708;2022-11-20T02:16:18;36.55;;;26.85;;
2680;SDS011;1350;42.134;24.708;2022-11-20T02:18:47;45.60;;;32.60;;
2680;SDS011;1350;42.134;24.708;2022-11-20T02:21:19;43.95;;;32.30;;
2680;SDS011;1350;42.134;24.708;2022-11-20T02:24:01;37.90;;;29.40;;
2680;SDS011;1350;42.134;24.708;2022-11-20T02:26:31;44.80;;;31.85;;
2680;SDS011;1350;42.134;24.708;2022-11-20T02:29:01;43.10;;;30.95;;
2680;SDS011;1350;42.134;24.708;2022-11-20T02:31:30;47.10;;;32.67;;
2680;SDS011;1350;42.134;24.708;2022-11-20T02:34:02;41.60;;;30.08;;
2680;SDS011;1350;42.134;24.708;2022-11-20T02:36:28;31.13;;;21.08;;
2680;SDS011;1350;42.134;24.708;2022-11-20T02:38:58;34.75;;;25.92;;
2680;SDS011;1350;42.134;24.708;2022-11-20T02:41:31;36.78;;;25.38;;
2680;SDS011;1350;42.134;24.708;2022-11-20T02:43:59;42.13;;;26.83;;
2680;SDS011;1350;42.134;24.708;2022-11-20T02:46:25;39.90;;;25.85;;
2680;SDS011;1350;42.134;24.708;2022-11-20T02:48:52;35.90;;;24.05;;
2680;SDS011;1350;42.134;24.708;2022-11-20T02:51:19;33.78;;;26.10;;
2680;SDS011;1350;42.134;24.708;2022-11-20T02:53:46;34.20;;;26.83;;
2680;SDS011;1350;42.134;24.708;2022-11-20T02:56:12;35.03;;;26.73;;
2680;SDS011;1350;42.134;24.708;2022-11-20T02:58:41;35.53;;;21.77;;
2680;SDS011;1350;42.134;24.708;2022-11-20T03:01:07;30.25;;;23.08;;
2680;SDS011;1350;42.134;24.708;2022-11-20T03:03:34;29.63;;;23.27;;
2680;SDS011;1350;42.134;24.708;2022-11-20T03:06:01;28.27;;;22.15;;
2680;SDS011;1350;42.134;24.708;2022-11-20T03:08:28;26.17;;;19.65;;
2680;SDS011;1350;42.134;24.708;2022-11-20T03:10:54;29.13;;;20.77;;
2680;SDS011;1350;42.134;24.708;2022-11-20T03:13:21;32.85;;;22.08;;
2680;SDS011;1350;42.134;24.708;2022-11-20T03:15:49;42.00;;;24.55;;
2680;SDS011;1350;42.134;24.708;2022-11-20T03:18:16;35.97;;;21.80;;
2680;SDS011;1350;42.134;24.708;2022-11-20T03:20:43;27.67;;;22.52;;
2680;SDS011;1350;42.134;24.708;2022-11-20T03:23:09;24.55;;;20.30;;
2680;SDS011;1350;42.134;24.708;2022-11-20T03:25:36;30.90;;;19.52;;
2680;SDS011;1350;42.134;24.708;2022-11-20T03:28:03;35.10;;;21.45;;
2680;SDS011;1350;42.134;24.708;2022-11-20T03:30:30;38.42;;;23.52;;
2680;SDS011;1350;42.134;24.708;2022-11-20T03:32:58;28.55;;;20.52;;
2680;SDS011;1350;42.134;24.708;2022-11-20T03:35:25;25.42;;;20.83;;
2680;SDS011;1350;42.134;24.708;2022-11-20T03:37:51;32.85;;;22.50;;
2680;SDS011;1350;42.134;24.708;2022-11-20T03:40:18;30.70;;;22.13;;
2680;SDS011;1350;42.134;24.708;2022-11-20T03:42:45;27.13;;;20.77;;
2680;SDS011;1350;42.134;24.708;2022-11-20T03:45:12;31.40;;;20.35;;
2680;SDS011;1350;42.134;24.708;2022-11-20T03:47:39;29.65;;;20.80;;
2680;SDS011;1350;42.134;24.708;2022-11-20T03:50:07;26.55;;;19.90;;
2680;SDS011;1350;42.134;24.708;2022-11-20T03:52:35;25.92;;;20.58;;
2680;SDS011;1350;42.134;24.708;2022-11-20T03:55:02;35.65;;;25.05;;
2680;SDS011;1350;42.134;24.708;2022-11-20T03:57:28;29.25;;;22.38;;
2680;SDS011;1350;42.134;24.708;2022-11-20T03:59:55;27.77;;;17.83;;
2680;SDS011;1350;42.134;24.708;2022-11-20T04:02:22;26.50;;;18.85;;
2680;SDS011;1350;42.134;24.708;2022-11-20T04:04:49;23.17;;;18.27;;
2680;SDS011;1350;42.134;24.708;2022-11-20T04:07:17;32.58;;;21.98;;
2680;SDS011;1350;42.134;24.708;2022-11-20T04:09:43;27.00;;;18.17;;
2680;SDS011;1350;42.134;24.708;2022-11-20T04:12:10;27.08;;;17.60;;
2680;SDS011;1350;42.134;24.708;2022-11-20T04:14:37;30.27;;;18.63;;
2680;SDS011;1350;42.134;24.708;2022-11-20T04:17:04;36.22;;;18.33;;
2680;SDS011;1350;42.134;24.708;2022-11-20T04:19:30;32.58;;;19.08;;
2680;SDS011;1350;42.134;24.708;2022-11-20T04:21:57;31.73;;;19.23;;
2680;SDS011;1350;42.134;24.708;2022-11-20T04:24:25;30.25;;;16.10;;
2680;SDS011;1350;42.134;24.708;2022-11-20T04:26:52;19.23;;;15.07;;
2680;SDS011;1350;42.134;24.708;2022-11-20T04:29:19;26.75;;;19.35;;
2680;SDS011;1350;42.134;24.708;2022-11-20T04:31:46;27.40;;;18.40;;
2680;SDS011;1350;42.134;24.708;2022-11-20T04:34:12;29.00;;;18.55;;
2680;SDS011;1350;42.134;24.708;2022-11-20T04:36:39;25.05;;;18.10;;
2680;SDS011;1350;42.134;24.708;2022-11-20T04:39:06;26.83;;;16.65;;
2680;SDS011;1350;42.134;24.708;2022-11-20T04:41:34;19.90;;;13.02;;
2680;SDS011;1350;42.134;24.708;2022-11-20T04:44:03;17.13;;;12.40;;
2680;SDS011;1350;42.134;24.708;2022-11-20T04:46:31;18.27;;;12.48;;
2680;SDS011;1350;42.134;24.708;2022-11-20T04:49:00;19.08;;;11.43;;
2680;SDS011;1350;42.134;24.708;2022-11-20T04:51:27;19.45;;;11.68;;
2680;SDS011;1350;42.134;24.708;2022-11-20T04:53:54;19.70;;;11.50;;
2680;SDS011;1350;42.134;24.708;2022-11-20T04:56:20;15.32;;;12.52;;
2680;SDS011;1350;42.134;24.708;2022-11-20T04:58:49;19.58;;;11.95;;
2680;SDS011;1350;42.134;24.708;2022-11-20T05:01:16;21.00;;;12.85;;
2680;SDS011;1350;42.134;24.708;2022-11-20T05:03:44;26.60;;;10.82;;
2680;SDS011;1350;42.134;24.708;2022-11-20T05:06:11;18.00;;;10.20;;
2680;SDS011;1350;42.134;24.708;2022-11-20T05:08:40;21.15;;;13.70;;
2680;SDS011;1350;42.134;24.708;2022-11-20T05:11:08;19.30;;;11.93;;
2680;SDS011;1350;42.134;24.708;2022-11-20T05:13:36;18.05;;;11.10;;
2680;SDS011;1350;42.134;24.708;2022-11-20T05:16:05;19.67;;;14.50;;
2680;SDS011;1350;42.134;24.708;2022-11-20T05:18:33;22.75;;;12.90;;
2680;SDS011;1350;42.134;24.708;2022-11-20T05:21:00;24.60;;;13.25;;
2680;SDS011;1350;42.134;24.708;2022-11-20T05:23:27;25.77;;;14.85;;
2680;SDS011;1350;42.134;24.708;2022-11-20T05:25:55;19.98;;;15.13;;
2680;SDS011;1350;42.134;24.708;2022-11-20T05:28:24;21.83;;;13.50;;
2680;SDS011;1350;42.134;24.708;2022-11-20T05:30:51;22.70;;;14.95;;
2680;SDS011;1350;42.134;24.708;2022-11-20T05:33:19;21.40;;;13.10;;
2680;SDS011;1350;42.134;24.708;2022-11-20T05:35:46;21.00;;;12.40;;
2680;SDS011;1350;42.134;24.708;2022-11-20T05:38:14;23.75;;;12.75;;
2680;SDS011;1350;42.134;24.708;2022-11-20T05:40:41;18.77;;;14.50;;
2680;SDS011;1350;42.134;24.708;2022-11-20T05:43:07;22.05;;;13.60;;
2680;SDS011;1350;42.134;24.708;2022-11-20T05:45:34;21.52;;;15.30;;
2680;SDS011;1350;42.134;24.708;2022-11-20T05:48:01;21.00;;;13.18;;
2680;SDS011;1350;42.134;24.708;2022-11-20T05:50:29;20.02;;;13.77;;
2680;SDS011;1350;42.134;24.708;2022-11-20T05:52:57;26.17;;;15.32;;
2680;SDS011;1350;42.134;24.708;2022-11-20T05:55:24;19.17;;;12.65;;
2680;SDS011;1350;42.134;24.708;2022-11-20T05:57:51;23.10;;;13.07;;
2680;SDS011;1350;42.134;24.708;2022-11-20T06:00:18;22.17;;;13.20;;
2680;SDS011;1350;42.134;24.708;2022-11-20T06:02:45;20.17;;;11.98;;
2680;SDS011;1350;42.134;24.708;2022-11-20T06:05:12;32.42;;;17.70;;
2680;SDS011;1350;42.134;24.708;2022-11-20T06:07:40;20.88;;;14.50;;
2680;SDS011;1350;42.134;24.708;2022-11-20T06:10:07;21.63;;;13.73;;
2680;SDS011;1350;42.134;24.708;2022-11-20T06:12:35;19.65;;;11.63;;
2680;SDS011;1350;42.134;24.708;2022-11-20T06:15:01;18.48;;;14.77;;
2680;SDS011;1350;42.134;24.708;2022-11-20T06:17:28;26.90;;;13.13;;
2680;SDS011;1350;42.134;24.708;2022-11-20T06:19:55;21.35;;;12.63;;
2680;SDS011;1350;42.134;24.708;2022-11-20T06:22:22;20.20;;;12.57;;
2680;SDS011;1350;42.134;24.708;2022-11-20T06:24:50;18.38;;;11.35;;
2680;SDS011;1350;42.134;24.708;2022-11-20T06:27:17;23.33;;;12.18;;
2680;SDS011;1350;42.134;24.708;2022-11-20T06:29:43;17.25;;;9.90;;
2680;SDS011;1350;42.134;24.708;2022-11-20T06:32:10;18.47;;;12.00;;
2680;SDS011;1350;42.134;24.708;2022-11-20T06:34:37;17.70;;;11.40;;
2680;SDS011;1350;42.134;24.708;2022-11-20T06:37:03;22.58;;;12.93;;
2680;SDS011;1350;42.134;24.708;2022-11-20T06:39:30;18.75;;;12.10;;
2680;SDS011;1350;42.134;24.708;2022-11-20T06:41:58;19.85;;;11.95;;
2680;SDS011;1350;42.134;24.708;2022-11-20T06:44:25;17.95;;;10.45;;
2680;SDS011;1350;42.134;24.708;2022-11-20T06:46:52;24.00;;;13.10;;
2680;SDS011;1350;42.134;24.708;2022-11-20T06:49:18;20.92;;;11.55;;
2680;SDS011;1350;42.134;24.708;2022-11-20T06:51:45;13.00;;;9.02;;
2680;SDS011;1350;42.134;24.708;2022-11-20T06:54:12;18.73;;;9.95;;
2680;SDS011;1350;42.134;24.708;2022-11-20T06:56:39;23.42;;;9.63;;
2680;SDS011;1350;42.134;24.708;2022-11-20T06:59:07;16.10;;;11.43;;
2680;SDS011;1350;42.134;24.708;2022-11-20T07:01:34;18.67;;;9.38;;
2680;SDS011;1350;42.134;24.708;2022-11-20T07:04:01;18.52;;;10.13;;
2680;SDS011;1350;42.134;24.708;2022-11-20T07:06:28;13.68;;;10.68;;
2680;SDS011;1350;42.134;24.708;2022-11-20T07:08:55;16.20;;;10.95;;
2680;SDS011;1350;42.134;24.708;2022-11-20T07:11:22;19.80;;;9.80;;
2680;SDS011;1350;42.134;24.708;2022-11-20T07:13:49;17.50;;;10.80;;
2680;SDS011;1350;42.134;24.708;2022-11-20T07:16:17;24.15;;;9.68;;
2680;SDS011;1350;42.134;24.708;2022-11-20T07:18:44;24.70;;;11.63;;
2680;SDS011;1350;42.134;24.708;2022-11-20T07:21:10;18.90;;;11.80;;
2680;SDS011;1350;42.134;24.708;2022-11-20T07:23:37;17.02;;;10.20;;
2680;SDS011;1350;42.134;24.708;2022-11-20T07:26:10;20.53;;;10.67;;
2680;SDS011;1350;42.134;24.708;2022-11-20T07:28:37;21.50;;;11.35;;
2680;SDS011;1350;42.134;24.708;2022-11-20T07:31:04;18.03;;;10.00;;
2680;SDS011;1350;42.134;24.708;2022-11-20T07:33:33;24.45;;;9.75;;
2680;SDS011;1350;42.134;24.708;2022-11-20T07:36:00;18.75;;;9.98;;
2680;SDS011;1350;42.134;24.708;2022-11-20T07:38:28;19.33;;;11.70;;
2680;SDS011;1350;42.134;24.708;2022-11-20T07:40:55;15.77;;;11.03;;
2680;SDS011;1350;42.134;24.708;2022-11-20T07:43:22;19.00;;;12.63;;
2680;SDS011;1350;42.134;24.708;2022-11-20T07:45:50;20.95;;;10.63;;
2680;SDS011;1350;42.134;24.708;2022-11-20T07:48:16;13.02;;;9.57;;
2680;SDS011;1350;42.134;24.708;2022-11-20T07:50:45;23.52;;;11.90;;
2680;SDS011;1350;42.134;24.708;2022-11-20T07:53:11;18.08;;;11.02;;
2680;SDS011;1350;42.134;24.708;2022-11-20T07:55:39;17.30;;;10.90;;
2680;SDS011;1350;42.134;24.708;2022-11-20T07:58:06;19.27;;;11.63;;
2680;SDS011;1350;42.134;24.708;2022-11-20T08:00:32;20.40;;;13.00;;
2680;SDS011;1350;42.134;24.708;2022-11-20T08:03:09;21.75;;;12.90;;
2680;SDS011;1350;42.134;24.708;2022-11-20T08:05:35;16.93;;;11.17;;
2680;SDS011;1350;42.134;24.708;2022-11-20T08:08:04;25.53;;;14.10;;
2680;SDS011;1350;42.134;24.708;2022-11-20T08:10:31;28.90;;;13.10;;
2680;SDS011;1350;42.134;24.708;2022-11-20T08:12:58;21.33;;;11.60;;
2680;SDS011;1350;42.134;24.708;2022-11-20T08:15:47;19.40;;;13.93;;
2680;SDS011;1350;42.134;24.708;2022-11-20T08:18:16;26.63;;;11.70;;
2680;SDS011;1350;42.134;24.708;2022-11-20T08:20:43;27.43;;;16.53;;
2680;SDS011;1350;42.134;24.708;2022-11-20T08:23:12;16.93;;;12.00;;
2680;SDS011;1350;42.134;24.708;2022-11-20T08:25:39;23.20;;;12.50;;
2680;SDS011;1350;42.134;24.708;2022-11-20T08:28:06;16.30;;;12.03;;
2680;SDS011;1350;42.134;24.708;2022-11-20T08:30:34;18.50;;;11.00;;
2680;SDS011;1350;42.134;24.708;2022-11-20T08:33:02;13.43;;;10.43;;
2680;SDS011;1350;42.134;24.708;2022-11-20T08:35:32;29.10;;;14.47;;
2680;SDS011;1350;42.134;24.708;2022-11-20T08:38:00;22.07;;;10.17;;
2680;SDS011;1350;42.134;24.708;2022-11-20T08:40:28;23.93;;;11.90;;
2680;SDS011;1350;42.134;24.708;2022-11-20T08:42:55;22.53;;;12.07;;
2680;SDS011;1350;42.134;24.708;2022-11-20T08:45:22;19.70;;;12.40;;
2680;SDS011;1350;42.134;24.708;2022-11-20T08:47:49;24.57;;;13.50;;
2680;SDS011;1350;42.134;24.708;2022-11-20T08:50:16;24.93;;;12.87;;
2680;SDS011;1350;42.134;24.708;2022-11-20T08:52:44;20.10;;;12.77;;
2680;SDS011;1350;42.134;24.708;2022-11-20T08:55:10;22.03;;;10.63;;
2680;SDS011;1350;42.134;24.708;2022-11-20T08:57:38;16.33;;;11.30;;
2680;SDS011;1350;42.134;24.708;2022-11-20T09:00:06;18.13;;;10.70;;
2680;SDS011;1350;42.134;24.708;2022-11-20T09:02:34;20.53;;;11.80;;
2680;SDS011;1350;42.134;24.708;2022-11-20T09:05:01;22.70;;;10.47;;
2680;SDS011;1350;42.134;24.708;2022-11-20T09:07:28;12.70;;;8.97;;
2680;SDS011;1350;42.134;24.708;2022-11-20T09:09:55;19.33;;;9.47;;
2680;SDS011;1350;42.134;24.708;2022-11-20T09:12:22;17.50;;;10.63;;
2680;SDS011;1350;42.134;24.708;2022-11-20T09:14:51;12.43;;;9.00;;
2680;SDS011;1350;42.134;24.708;2022-11-20T09:17:18;18.30;;;10.77;;
2680;SDS011;1350;42.134;24.708;2022-11-20T09:19:45;20.43;;;11.10;;
2680;SDS011;1350;42.134;24.708;2022-11-20T09:22:12;16.77;;;11.10;;
2680;SDS011;1350;42.134;24.708;2022-11-20T09:24:39;16.40;;;10.10;;
2680;SDS011;1350;42.134;24.708;2022-11-20T09:27:06;14.57;;;9.70;;
2680;SDS011;1350;42.134;24.708;2022-11-20T09:29:33;16.80;;;9.00;;
2680;SDS011;1350;42.134;24.708;2022-11-20T09:32:01;13.50;;;8.40;;
2680;SDS011;1350;42.134;24.708;2022-11-20T09:34:28;13.60;;;7.53;;
2680;SDS011;1350;42.134;24.708;2022-11-20T09:36:55;14.73;;;9.23;;
2680;SDS011;1350;42.134;24.708;2022-11-20T09:39:22;16.00;;;9.80;;
2680;SDS011;1350;42.134;24.708;2022-11-20T09:44:48;13.87;;;8.70;;
2680;SDS011;1350;42.134;24.708;2022-11-20T09:47:36;18.27;;;10.13;;
2680;SDS011;1350;42.134;24.708;2022-11-20T09:50:19;16.40;;;8.70;;
2680;SDS011;1350;42.134;24.708;2022-11-20T09:52:55;14.33;;;8.03;;
2680;SDS011;1350;42.134;24.708;2022-11-20T09:55:31;19.50;;;9.33;;
2680;SDS011;1350;42.134;24.708;2022-11-20T09:57:58;13.80;;;9.70;;
2680;SDS011;1350;42.134;24.708;2022-11-20T10:00:26;17.30;;;8.43;;
2680;SDS011;1350;42.134;24.708;2022-11-20T10:02:58;11.93;;;7.70;;
2680;SDS011;1350;42.134;24.708;2022-11-20T10:05:29;12.40;;;7.60;;
2680;SDS011;1350;42.134;24.708;2022-11-20T10:08:04;20.90;;;9.90;;
2680;SDS011;1350;42.134;24.708;2022-11-20T10:10:40;75.67;;;50.70;;
2680;SDS011;1350;42.134;24.708;2022-11-20T10:13:14;841.93;;;660.13;;
2680;SDS011;1350;42.134;24.708;2022-11-20T10:15:52;599.90;;;459.67;;
2680;SDS011;1350;42.134;24.708;2022-11-20T10:18:31;49.93;;;26.97;;
2680;SDS011;1350;42.134;24.708;2022-11-20T10:21:08;86.53;;;49.87;;
2680;SDS011;1350;42.134;24.708;2022-11-20T10:23:45;94.83;;;48.77;;
2680;SDS011;1350;42.134;24.708;2022-11-20T10:26:25;113.80;;;83.73;;
2680;SDS011;1350;42.134;24.708;2022-11-20T10:29:01;53.57;;;34.33;;
2680;SDS011;1350;42.134;24.708;2022-11-20T10:31:37;24.07;;;10.57;;
2680;SDS011;1350;42.134;24.708;2022-11-20T10:34:07;32.23;;;22.23;;
2680;SDS011;1350;42.134;24.708;2022-11-20T10:36:44;1198.60;;;774.67;;
2680;SDS011;1350;42.134;24.708;2022-11-20T10:39:16;1088.63;;;709.13;;
2680;SDS011;1350;42.134;24.708;2022-11-20T10:41:49;379.73;;;237.30;;
2680;SDS011;1350;42.134;24.708;2022-11-20T10:44:19;26.10;;;12.60;;
2680;SDS011;1350;42.134;24.708;2022-11-20T10:47:02;28.53;;;18.43;;
2680;SDS011;1350;42.134;24.708;2022-11-20T10:49:31;184.77;;;115.23;;
2680;SDS011;1350;42.134;24.708;2022-11-20T10:52:02;1947.50;;;912.60;;
2680;SDS011;1350;42.134;24.708;2022-11-20T10:54:37;835.00;;;518.00;;
2680;SDS011;1350;42.134;24.708;2022-11-20T10:57:16;1223.17;;;729.83;;
2680;SDS011;1350;42.134;24.708;2022-11-20T11:00:03;926.30;;;584.70;;
2680;SDS011;1350;42.134;24.708;2022-11-20T11:02:32;194.17;;;124.57;;
2680;SDS011;1350;42.134;24.708;2022-11-20T11:05:14;344.90;;;234.17;;
2680;SDS011;1350;42.134;24.708;2022-11-20T11:07:49;31.23;;;19.27;;
2680;SDS011;1350;42.134;24.708;2022-11-20T11:10:21;16.33;;;10.30;;
2680;SDS011;1350;42.134;24.708;2022-11-20T11:12:50;16.90;;;10.27;;
2680;SDS011;1350;42.134;24.708;2022-11-20T11:15:24;27.37;;;17.00;;
2680;SDS011;1350;42.134;24.708;2022-11-20T11:17:53;30.53;;;20.43;;
2680;SDS011;1350;42.134;24.708;2022-11-20T11:20:21;158.70;;;113.33;;
2680;SDS011;1350;42.134;24.708;2022-11-20T11:22:50;41.00;;;25.00;;
2680;SDS011;1350;42.134;24.708;2022-11-20T11:25:22;25.93;;;10.10;;
2680;SDS011;1350;42.134;24.708;2022-11-20T11:27:52;20.33;;;9.40;;
2680;SDS011;1350;42.134;24.708;2022-11-20T11:30:20;22.00;;;9.40;;
2680;SDS011;1350;42.134;24.708;2022-11-20T11:32:47;18.97;;;9.47;;
2680;SDS011;1350;42.134;24.708;2022-11-20T11:35:23;16.00;;;7.90;;
2680;SDS011;1350;42.134;24.708;2022-11-20T11:37:51;14.67;;;6.87;;
2680;SDS011;1350;42.134;24.708;2022-11-20T11:40:20;11.20;;;6.70;;
2680;SDS011;1350;42.134;24.708;2022-11-20T11:42:53;26.83;;;7.70;;
2680;SDS011;1350;42.134;24.708;2022-11-20T11:45:22;11.27;;;6.57;;
2680;SDS011;1350;42.134;24.708;2022-11-20T11:47:48;15.57;;;7.27;;
2680;SDS011;1350;42.134;24.708;2022-11-20T11:50:18;16.80;;;7.37;;
2680;SDS011;1350;42.134;24.708;2022-11-20T11:52:51;15.83;;;7.20;;
2680;SDS011;1350;42.134;24.708;2022-11-20T11:55:26;21.03;;;8.73;;
2680;SDS011;1350;42.134;24.708;2022-11-20T12:04:55;13.00;;;6.93;;
2680;SDS011;1350;42.134;24.708;2022-11-20T12:07:29;15.90;;;8.30;;
2680;SDS011;1350;42.134;24.708;2022-11-20T12:10:08;22.43;;;10.00;;
2680;SDS011;1350;42.134;24.708;2022-11-20T12:12:43;24.63;;;10.37;;
2680;SDS011;1350;42.134;24.708;2022-11-20T12:15:16;23.03;;;10.97;;
2680;SDS011;1350;42.134;24.708;2022-11-20T12:17:52;28.10;;;8.30;;
2680;SDS011;1350;42.134;24.708;2022-11-20T12:20:19;18.90;;;8.27;;
2680;SDS011;1350;42.134;24.708;2022-11-20T12:22:52;19.00;;;8.00;;
2680;SDS011;1350;42.134;24.708;2022-11-20T12:25:28;19.57;;;9.53;;
2680;SDS011;1350;42.134;24.708;2022-11-20T12:31:08;20.70;;;11.30;;
2680;SDS011;1350;42.134;24.708;2022-11-20T12:33:53;17.53;;;9.83;;
2680;SDS011;1350;42.134;24.708;2022-11-20T12:36:28;21.67;;;9.30;;
2680;SDS011;1350;42.134;24.708;2022-11-20T12:39:07;22.93;;;12.90;;
2680;SDS011;1350;42.134;24.708;2022-11-20T12:41:51;17.33;;;9.80;;
2680;SDS011;1350;42.134;24.708;2022-11-20T12:45:02;22.87;;;9.77;;
2680;SDS011;1350;42.134;24.708;2022-11-20T12:48:03;18.67;;;9.53;;
2680;SDS011;1350;42.134;24.708;2022-11-20T12:50:44;19.23;;;7.07;;
2680;SDS011;1350;42.134;24.708;2022-11-20T12:53:22;16.10;;;7.40;;
2680;SDS011;1350;42.134;24.708;2022-11-20T12:55:58;16.50;;;6.50;;
2680;SDS011;1350;42.134;24.708;2022-11-20T12:58:41;23.83;;;5.13;;
2680;SDS011;1350;42.134;24.708;2022-11-20T13:01:17;15.80;;;5.50;;
2680;SDS011;1350;42.134;24.708;2022-11-20T13:07:00;19.30;;;5.27;;
2680;SDS011;1350;42.134;24.708;2022-11-20T13:09:28;19.67;;;8.93;;
2680;SDS011;1350;42.134;24.708;2022-11-20T13:12:00;19.90;;;5.47;;
2680;SDS011;1350;42.134;24.708;2022-11-20T13:14:34;17.10;;;8.20;;
2680;SDS011;1350;42.134;24.708;2022-11-20T13:17:09;17.67;;;5.40;;
2680;SDS011;1350;42.134;24.708;2022-11-20T13:19:40;13.37;;;5.40;;
2680;SDS011;1350;42.134;24.708;2022-11-20T13:22:07;15.47;;;6.03;;
2680;SDS011;1350;42.134;24.708;2022-11-20T13:24:35;14.60;;;6.27;;
2680;SDS011;1350;42.134;24.708;2022-11-20T13:29:47;16.57;;;6.07;;
2680;SDS011;1350;42.134;24.708;2022-11-20T13:32:26;17.27;;;6.27;;
2680;SDS011;1350;42.134;24.708;2022-11-20T13:34:57;21.70;;;7.07;;
2680;SDS011;1350;42.134;24.708;2022-11-20T13:37:27;15.70;;;4.33;;
2680;SDS011;1350;42.134;24.708;2022-11-20T13:40:05;20.77;;;3.83;;
2680;SDS011;1350;42.134;24.708;2022-11-20T13:42:40;15.20;;;4.30;;
2680;SDS011;1350;42.134;24.708;2022-11-20T13:45:21;21.63;;;4.67;;
2680;SDS011;1350;42.134;24.708;2022-11-20T13:47:49;20.77;;;4.60;;
2680;SDS011;1350;42.134;24.708;2022-11-20T13:50:17;11.57;;;4.00;;
2680;SDS011;1350;42.134;24.708;2022-11-20T13:52:46;19.83;;;4.73;;
2680;SDS011;1350;42.134;24.708;2022-11-20T13:55:22;19.53;;;6.30;;
2680;SDS011;1350;42.134;24.708;2022-11-20T13:58:05;19.50;;;4.87;;
2680;SDS011;1350;42.134;24.708;2022-11-20T14:00:50;24.83;;;4.23;;
2680;SDS011;1350;42.134;24.708;2022-11-20T14:03:21;16.20;;;3.03;;
2680;SDS011;1350;42.134;24.708;2022-11-20T14:05:50;14.77;;;2.67;;
2680;SDS011;1350;42.134;24.708;2022-11-20T14:08:23;9.33;;;2.47;;
2680;SDS011;1350;42.134;24.708;2022-11-20T14:11:04;7.47;;;2.10;;
2680;SDS011;1350;42.134;24.708;2022-11-20T14:13:38;11.20;;;2.07;;
2680;SDS011;1350;42.134;24.708;2022-11-20T14:16:08;5.80;;;1.73;;
2680;SDS011;1350;42.134;24.708;2022-11-20T14:18:35;5.10;;;1.50;;
2680;SDS011;1350;42.134;24.708;2022-11-20T14:21:02;8.13;;;1.70;;
2680;SDS011;1350;42.134;24.708;2022-11-20T14:23:30;4.80;;;1.53;;
2680;SDS011;1350;42.134;24.708;2022-11-20T14:25:57;7.57;;;1.93;;
2680;SDS011;1350;42.134;24.708;2022-11-20T14:28:25;6.50;;;3.03;;
2680;SDS011;1350;42.134;24.708;2022-11-20T14:30:53;7.10;;;2.03;;
2680;SDS011;1350;42.134;24.708;2022-11-20T14:33:22;10.73;;;2.20;;
2680;SDS011;1350;42.134;24.708;2022-11-20T14:35:51;4.63;;;1.70;;
2680;SDS011;1350;42.134;24.708;2022-11-20T14:38:21;7.57;;;1.60;;
2680;SDS011;1350;42.134;24.708;2022-11-20T14:40:51;7.47;;;2.50;;
2680;SDS011;1350;42.134;24.708;2022-11-20T14:43:19;9.00;;;3.07;;
2680;SDS011;1350;42.134;24.708;2022-11-20T14:45:51;8.00;;;2.93;;
2680;SDS011;1350;42.134;24.708;2022-11-20T14:48:25;8.43;;;3.07;;
2680;SDS011;1350;42.134;24.708;2022-11-20T14:50:56;17.37;;;6.20;;
2680;SDS011;1350;42.134;24.708;2022-11-20T14:53:23;20.63;;;12.57;;
2680;SDS011;1350;42.134;24.708;2022-11-20T14:55:55;9.10;;;3.73;;
2680;SDS011;1350;42.134;24.708;2022-11-20T14:58:24;9.87;;;5.60;;
2680;SDS011;1350;42.134;24.708;2022-11-20T15:00:54;15.53;;;4.40;;
2680;SDS011;1350;42.134;24.708;2022-11-20T15:03:22;9.47;;;3.23;;
2680;SDS011;1350;42.134;24.708;2022-11-20T15:05:50;7.63;;;3.23;;
2680;SDS011;1350;42.134;24.708;2022-11-20T15:08:17;9.07;;;3.80;;
2680;SDS011;1350;42.134;24.708;2022-11-20T15:10:45;8.70;;;4.37;;
2680;SDS011;1350;42.134;24.708;2022-11-20T15:13:14;9.33;;;4.10;;